Time;durP1;ratioP1;P1;durP2;ratioP2;P2;SDS_P1;SDS_P2;PMS_P1;PMS_P2;Temp;Humidity;BMP_temperature;BMP_pressure;BME280_temperature;BME280_humidity;BME280_pressure;Samples;Min_cycle;Max_cycle;Signal;HPM_P1;HPM_P2
2023/02/19 00:01:47;;;;;;;2.80;0.70;;;;;;;;;;5006875;28;20048;-63
2023/02/19 00:04:18;;;;;;;6.32;2.03;;;;;;;;;;5005882;28;20526;-64
2023/02/19 00:06:46;;;;;;;3.80;1.08;;;;;;;;;;5004347;28;20790;-65
2023/02/19 00:09:13;;;;;;;3.88;0.70;;;;;;;;;;5006266;28;20045;-64
2023/02/19 00:11:40;;;;;;;4.20;0.90;;;;;;;;;;5004084;28;20060;-63
2023/02/19 00:14:07;;;;;;;3.65;0.85;;;;;;;;;;5004989;28;20045;-64
2023/02/19 00:16:35;;;;;;;3.35;0.77;;;;;;;;;;5003918;28;20094;-64
2023/02/19 00:19:03;;;;;;;7.68;0.93;;;;;;;;;;5003064;28;20088;-64
2023/02/19 00:21:30;;;;;;;6.13;0.90;;;;;;;;;;5003960;28;20360;-64
2023/02/19 00:24:00;;;;;;;4.13;0.82;;;;;;;;;;5005923;28;20483;-64
2023/02/19 00:26:27;;;;;;;5.57;0.90;;;;;;;;;;5003505;28;20042;-62
2023/02/19 00:28:54;;;;;;;3.17;0.80;;;;;;;;;;5003639;28;20030;-62
2023/02/19 00:31:26;;;;;;;4.78;1.30;;;;;;;;;;5003938;28;20088;-64
2023/02/19 00:33:53;;;;;;;7.43;1.60;;;;;;;;;;5005038;28;20129;-63
2023/02/19 00:36:20;;;;;;;4.38;1.02;;;;;;;;;;5002691;28;20130;-62
2023/02/19 00:38:47;;;;;;;5.22;0.88;;;;;;;;;;5007562;28;20088;-63
2023/02/19 00:41:18;;;;;;;7.15;1.40;;;;;;;;;;5010521;28;20542;-62
2023/02/19 00:43:52;;;;;;;7.90;1.30;;;;;;;;;;5026370;28;20053;-59
2023/02/19 00:46:23;;;;;;;12.18;1.00;;;;;;;;;;5014059;28;20030;-64
2023/02/19 00:48:51;;;;;;;3.80;0.77;;;;;;;;;;5017441;28;20049;-65
2023/02/19 00:51:18;;;;;;;3.83;0.82;;;;;;;;;;5018571;28;20046;-64
2023/02/19 00:53:45;;;;;;;4.45;0.95;;;;;;;;;;5010510;28;20598;-65
2023/02/19 00:56:12;;;;;;;3.95;0.80;;;;;;;;;;5007638;28;20051;-65
2023/02/19 00:58:39;;;;;;;5.97;1.20;;;;;;;;;;4988476;28;20049;-65
2023/02/19 01:01:06;;;;;;;3.80;0.80;;;;;;;;;;5007461;28;20084;-65
2023/02/19 01:03:36;;;;;;;7.40;1.05;;;;;;;;;;5008373;28;20064;-65
2023/02/19 01:06:03;;;;;;;5.60;1.20;;;;;;;;;;5007233;28;20033;-65
2023/02/19 01:08:30;;;;;;;6.47;1.00;;;;;;;;;;5008432;28;20131;-65
2023/02/19 01:10:57;;;;;;;9.38;0.98;;;;;;;;;;5008336;28;20048;-65
2023/02/19 01:13:23;;;;;;;4.35;0.82;;;;;;;;;;5007551;28;20037;-65
2023/02/19 01:15:50;;;;;;;4.75;1.02;;;;;;;;;;5005951;28;20042;-64
2023/02/19 01:18:17;;;;;;;8.88;1.30;;;;;;;;;;5008896;28;20033;-65
2023/02/19 01:20:46;;;;;;;6.22;0.77;;;;;;;;;;5006882;28;20344;-64
2023/02/19 01:23:13;;;;;;;2.13;0.60;;;;;;;;;;5025440;28;20048;-64
2023/02/19 01:25:41;;;;;;;10.65;1.10;;;;;;;;;;5008942;28;20116;-64
2023/02/19 01:28:08;;;;;;;7.30;1.48;;;;;;;;;;5009482;28;20180;-64
2023/02/19 01:30:35;;;;;;;4.63;1.17;;;;;;;;;;5009745;28;20048;-64
2023/02/19 01:33:04;;;;;;;13.80;1.55;;;;;;;;;;5008496;28;20125;-64
2023/02/19 01:35:30;;;;;;;4.47;1.20;;;;;;;;;;5000096;28;20451;-65
2023/02/19 01:37:57;;;;;;;7.20;1.10;;;;;;;;;;5023894;28;20110;-65
2023/02/19 01:40:24;;;;;;;3.97;1.20;;;;;;;;;;5008051;28;20950;-65
2023/02/19 01:42:51;;;;;;;11.70;1.52;;;;;;;;;;5009779;28;20112;-65
2023/02/19 01:45:26;;;;;;;8.27;1.40;;;;;;;;;;5018730;28;20498;-65
2023/02/19 01:48:03;;;;;;;4.32;1.50;;;;;;;;;;5031918;28;20033;-65
2023/02/19 01:50:32;;;;;;;7.93;1.30;;;;;;;;;;5031211;28;20045;-65
2023/02/19 01:52:59;;;;;;;5.20;1.33;;;;;;;;;;5031680;28;20061;-65
2023/02/19 01:55:26;;;;;;;6.00;1.23;;;;;;;;;;5029676;28;20351;-66
2023/02/19 01:57:54;;;;;;;10.52;1.50;;;;;;;;;;5029507;28;20025;-66
2023/02/19 02:00:23;;;;;;;7.13;1.40;;;;;;;;;;5030260;28;21956;-66
2023/02/19 02:02:51;;;;;;;7.00;1.63;;;;;;;;;;5030405;28;20045;-66
2023/02/19 02:05:32;;;;;;;6.55;1.63;;;;;;;;;;5032120;28;20034;-65
2023/02/19 02:10:46;;;;;;;8.00;1.65;;;;;;;;;;5032083;28;20144;-66
2023/02/19 02:13:13;;;;;;;5.57;1.70;;;;;;;;;;5031006;28;20068;-66
2023/02/19 02:15:45;;;;;;;7.18;1.23;;;;;;;;;;5031668;28;20045;-65
2023/02/19 02:18:17;;;;;;;7.80;1.50;;;;;;;;;;5030750;28;20056;-64
2023/02/19 02:20:57;;;;;;;10.23;1.25;;;;;;;;;;5029561;28;20033;-65
2023/02/19 02:23:30;;;;;;;6.03;1.30;;;;;;;;;;5031364;28;20840;-65
2023/02/19 02:26:19;;;;;;;7.70;1.38;;;;;;;;;;5031094;28;20036;-65
2023/02/19 02:28:52;;;;;;;7.47;1.35;;;;;;;;;;5029602;28;20052;-65
2023/02/19 02:31:37;;;;;;;6.03;1.03;;;;;;;;;;5033969;28;20037;-65
2023/02/19 02:34:24;;;;;;;5.75;1.02;;;;;;;;;;5031629;28;20322;-65
2023/02/19 02:36:54;;;;;;;3.35;1.20;;;;;;;;;;5030360;28;20045;-66
2023/02/19 02:39:22;;;;;;;6.43;0.95;;;;;;;;;;5030891;28;20064;-65
2023/02/19 02:42:26;;;;;;;5.10;1.38;;;;;;;;;;5031817;28;20132;-65
2023/02/19 02:44:40;;;;;;;4.78;1.58;;;;;;;;;;5029172;28;20479;-65
2023/02/19 02:47:41;;;;;;;8.10;1.85;;;;;;;;;;5007713;28;20604;-65
2023/02/19 02:50:17;;;;;;;6.72;2.15;;;;;;;;;;5003158;28;20050;-66
2023/02/19 02:55:34;;;;;;;10.55;2.58;;;;;;;;;;4986420;28;20056;-66
2023/02/19 02:58:01;;;;;;;9.00;2.45;;;;;;;;;;4988580;28;20227;-66
2023/02/19 03:02:09;;;;;;;10.00;1.98;;;;;;;;;;4987427;28;20558;-66
2023/02/19 03:03:15;;;;;;;8.80;2.30;;;;;;;;;;4988060;28;20038;-65
2023/02/19 03:05:51;;;;;;;10.30;2.63;;;;;;;;;;4993024;28;20424;-65
2023/02/19 03:08:21;;;;;;;8.32;2.33;;;;;;;;;;5000455;28;20050;-66
2023/02/19 03:10:47;;;;;;;10.38;3.35;;;;;;;;;;5018986;28;20048;-65
2023/02/19 03:21:40;;;;;;;20.17;3.70;;;;;;;;;;5011809;28;20053;-65
2023/02/19 03:26:54;;;;;;;14.10;4.93;;;;;;;;;;5035201;28;20052;-65
2023/02/19 03:29:25;;;;;;;9.63;4.50;;;;;;;;;;5030074;28;20509;-64
2023/02/19 03:32:04;;;;;;;16.77;6.05;;;;;;;;;;5037056;28;20132;-64
2023/02/19 03:34:55;;;;;;;23.42;7.43;;;;;;;;;;5025059;28;20349;-65
2023/02/19 03:37:37;;;;;;;16.10;3.67;;;;;;;;;;5043179;28;20922;-64
2023/02/19 03:40:03;;;;;;;18.58;6.03;;;;;;;;;;5045150;28;20140;-63
2023/02/19 03:42:50;;;;;;;23.58;5.28;;;;;;;;;;4991967;28;20132;-63
2023/02/19 03:45:32;;;;;;;16.98;5.50;;;;;;;;;;5008201;28;20114;-64
2023/02/19 03:48:04;;;;;;;14.55;5.30;;;;;;;;;;5025490;28;20045;-64
2023/02/19 03:50:45;;;;;;;17.00;4.88;;;;;;;;;;5024559;28;20037;-64
2023/02/19 03:53:23;;;;;;;12.57;4.32;;;;;;;;;;5024234;28;20138;-64
2023/02/19 03:56:05;;;;;;;9.07;3.88;;;;;;;;;;5024398;28;20132;-64
2023/02/19 03:58:44;;;;;;;18.42;4.22;;;;;;;;;;5024820;28;20033;-65
2023/02/19 04:01:19;;;;;;;12.50;3.20;;;;;;;;;;5027482;28;20044;-64
2023/02/19 04:03:52;;;;;;;15.55;3.63;;;;;;;;;;5025207;28;20479;-64
2023/02/19 04:06:22;;;;;;;21.83;3.78;;;;;;;;;;5006993;28;20061;-64
2023/02/19 04:08:52;;;;;;;17.67;4.40;;;;;;;;;;5007643;28;20129;-65
2023/02/19 04:11:19;;;;;;;15.30;3.85;;;;;;;;;;5025121;28;20045;-64
2023/02/19 04:13:50;;;;;;;14.75;3.85;;;;;;;;;;5024285;28;20047;-64
2023/02/19 04:16:24;;;;;;;10.95;3.30;;;;;;;;;;5025251;28;20057;-62
2023/02/19 04:18:53;;;;;;;9.77;3.78;;;;;;;;;;5022274;28;20038;-65
2023/02/19 04:21:20;;;;;;;14.63;2.95;;;;;;;;;;5024603;28;20827;-65
2023/02/19 04:23:47;;;;;;;14.15;3.55;;;;;;;;;;5025951;28;20059;-64
2023/02/19 04:26:15;;;;;;;13.93;3.55;;;;;;;;;;5023936;28;20497;-66
2023/02/19 04:28:43;;;;;;;18.42;3.88;;;;;;;;;;5025887;28;20033;-66
2023/02/19 04:31:10;;;;;;;14.15;3.80;;;;;;;;;;5028423;28;21746;-65
2023/02/19 04:33:37;;;;;;;18.58;4.82;;;;;;;;;;5026320;28;20037;-64
2023/02/19 04:36:04;;;;;;;9.02;4.75;;;;;;;;;;5028396;28;20056;-65
2023/02/19 04:38:30;;;;;;;7.32;3.40;;;;;;;;;;5025924;28;20034;-66
2023/02/19 04:40:57;;;;;;;12.73;3.40;;;;;;;;;;5027466;28;20029;-70
2023/02/19 04:43:24;;;;;;;11.52;3.30;;;;;;;;;;5022832;28;20502;-65
2023/02/19 04:45:53;;;;;;;12.32;4.30;;;;;;;;;;5025501;28;20041;-66
2023/02/19 04:48:20;;;;;;;6.13;2.80;;;;;;;;;;5023159;28;20045;-65
2023/02/19 04:50:47;;;;;;;7.75;2.97;;;;;;;;;;5026458;28;20557;-64
2023/02/19 04:53:13;;;;;;;11.65;2.83;;;;;;;;;;5027588;28;20394;-65
2023/02/19 04:55:40;;;;;;;5.72;2.40;;;;;;;;;;5024603;28;20101;-66
2023/02/19 04:58:07;;;;;;;6.88;2.45;;;;;;;;;;5025028;28;20033;-65
2023/02/19 05:00:33;;;;;;;16.95;2.40;;;;;;;;;;5024866;28;20064;-66
2023/02/19 05:03:00;;;;;;;8.80;2.05;;;;;;;;;;5025865;28;20037;-66
2023/02/19 05:05:27;;;;;;;7.30;2.20;;;;;;;;;;5010250;28;20498;-64
2023/02/19 05:07:54;;;;;;;12.45;2.38;;;;;;;;;;5028670;28;20068;-64
2023/02/19 05:10:20;;;;;;;6.90;1.90;;;;;;;;;;5025867;28;20055;-66
2023/02/19 05:12:47;;;;;;;5.30;2.00;;;;;;;;;;5009831;28;20037;-66
2023/02/19 05:15:13;;;;;;;7.78;2.25;;;;;;;;;;5007169;28;20081;-65
2023/02/19 05:17:40;;;;;;;5.15;2.20;;;;;;;;;;5010943;28;20527;-65
2023/02/19 05:20:07;;;;;;;8.98;2.15;;;;;;;;;;5012985;28;20038;-64
2023/02/19 05:22:34;;;;;;;4.45;2.00;;;;;;;;;;5001085;28;20073;-66
2023/02/19 05:25:00;;;;;;;6.90;1.92;;;;;;;;;;5025887;28;20045;-65
2023/02/19 05:27:27;;;;;;;5.13;2.15;;;;;;;;;;5001873;28;21543;-65
2023/02/19 05:29:53;;;;;;;6.65;2.22;;;;;;;;;;5011667;28;20037;-65
2023/02/19 05:32:20;;;;;;;8.32;2.35;;;;;;;;;;4991702;28;20056;-66
2023/02/19 05:34:47;;;;;;;6.55;1.90;;;;;;;;;;5008303;28;20438;-64
2023/02/19 05:37:33;;;;;;;5.97;2.30;;;;;;;;;;4988210;28;20649;-65
2023/02/19 05:40:00;;;;;;;8.48;2.20;;;;;;;;;;4981243;28;20052;-66
2023/02/19 05:42:26;;;;;;;4.93;2.13;;;;;;;;;;4989862;28;20384;-64
2023/02/19 05:44:53;;;;;;;4.18;1.63;;;;;;;;;;4991301;28;20572;-65
2023/02/19 05:47:20;;;;;;;6.18;1.45;;;;;;;;;;4991184;28;20057;-66
2023/02/19 05:49:48;;;;;;;5.57;1.73;;;;;;;;;;4991729;28;20064;-66
2023/02/19 05:52:16;;;;;;;4.65;1.38;;;;;;;;;;4980769;28;20042;-65
2023/02/19 05:54:43;;;;;;;3.50;1.20;;;;;;;;;;4976029;28;20049;-66
2023/02/19 05:57:09;;;;;;;6.10;1.48;;;;;;;;;;4989644;28;20038;-64
2023/02/19 05:59:36;;;;;;;6.10;1.30;;;;;;;;;;4974875;28;20186;-65
2023/02/19 06:02:03;;;;;;;3.83;1.17;;;;;;;;;;4980900;28;20042;-66
2023/02/19 06:04:29;;;;;;;5.82;1.60;;;;;;;;;;4976312;28;20046;-65
2023/02/19 06:06:56;;;;;;;5.03;1.85;;;;;;;;;;4977499;28;20034;-66
2023/02/19 06:09:23;;;;;;;6.85;1.48;;;;;;;;;;4979475;28;20338;-65
2023/02/19 06:11:50;;;;;;;5.68;1.30;;;;;;;;;;4980809;28;20041;-65
2023/02/19 06:14:17;;;;;;;5.20;1.70;;;;;;;;;;4957256;28;20575;-65
2023/02/19 06:16:44;;;;;;;5.50;1.55;;;;;;;;;;4985005;28;20035;-64
2023/02/19 06:19:10;;;;;;;9.10;2.10;;;;;;;;;;4985886;28;20039;-64
2023/02/19 06:21:37;;;;;;;8.20;1.80;;;;;;;;;;4985949;28;20054;-64
2023/02/19 06:24:05;;;;;;;7.63;1.90;;;;;;;;;;4986155;28;20598;-64
2023/02/19 06:26:31;;;;;;;9.30;1.98;;;;;;;;;;4984363;28;20064;-64
2023/02/19 06:28:58;;;;;;;5.15;1.77;;;;;;;;;;4985341;28;20048;-65
2023/02/19 06:31:24;;;;;;;5.88;1.65;;;;;;;;;;4985994;28;20098;-65
2023/02/19 06:33:51;;;;;;;4.30;1.55;;;;;;;;;;4985672;28;21847;-65
2023/02/19 06:36:22;;;;;;;4.38;1.42;;;;;;;;;;4985228;28;20050;-65
2023/02/19 06:38:49;;;;;;;7.47;1.75;;;;;;;;;;4976202;28;20042;-65
2023/02/19 06:41:15;;;;;;;4.35;1.50;;;;;;;;;;4967407;28;20422;-64
2023/02/19 06:43:42;;;;;;;5.00;1.77;;;;;;;;;;4968755;28;20807;-64
2023/02/19 06:46:11;;;;;;;4.15;1.30;;;;;;;;;;4964486;28;20125;-64
2023/02/19 06:48:39;;;;;;;4.18;1.60;;;;;;;;;;4985006;28;21431;-64
2023/02/19 06:51:05;;;;;;;4.88;1.50;;;;;;;;;;5007895;28;20041;-65
2023/02/19 06:53:32;;;;;;;4.35;1.40;;;;;;;;;;5007226;28;20037;-65
2023/02/19 06:56:03;;;;;;;7.97;1.65;;;;;;;;;;5007389;28;20064;-65
2023/02/19 06:58:31;;;;;;;6.45;1.13;;;;;;;;;;5005674;28;20491;-65
2023/02/19 07:00:57;;;;;;;7.05;1.42;;;;;;;;;;5007945;28;20042;-65
2023/02/19 07:03:25;;;;;;;3.95;1.17;;;;;;;;;;5022239;28;20041;-66
2023/02/19 07:05:52;;;;;;;2.55;0.90;;;;;;;;;;5006223;28;20034;-66
2023/02/19 07:08:18;;;;;;;2.83;0.93;;;;;;;;;;5007601;28;20037;-65
2023/02/19 07:10:45;;;;;;;3.47;1.20;;;;;;;;;;5007433;28;20033;-65
2023/02/19 07:13:12;;;;;;;4.18;0.98;;;;;;;;;;5005365;28;20042;-65
2023/02/19 07:15:38;;;;;;;7.95;1.20;;;;;;;;;;5006136;28;20062;-65
2023/02/19 07:18:09;;;;;;;4.72;1.00;;;;;;;;;;4991257;28;22340;-65
2023/02/19 07:20:35;;;;;;;3.30;0.98;;;;;;;;;;4985678;28;20087;-64
2023/02/19 07:23:03;;;;;;;2.85;0.88;;;;;;;;;;4986631;28;20045;-64
2023/02/19 07:25:31;;;;;;;3.03;1.00;;;;;;;;;;4980305;28;20050;-64
2023/02/19 07:27:58;;;;;;;2.33;0.77;;;;;;;;;;5020597;28;20142;-64
2023/02/19 07:30:24;;;;;;;3.08;1.08;;;;;;;;;;4980238;28;20045;-64
2023/02/19 07:32:51;;;;;;;3.05;0.95;;;;;;;;;;5002778;28;20572;-61
2023/02/19 07:35:18;;;;;;;2.63;0.85;;;;;;;;;;4990063;28;20057;-64
2023/02/19 07:37:44;;;;;;;2.55;0.90;;;;;;;;;;4987220;28;20049;-64
2023/02/19 07:40:11;;;;;;;3.35;1.10;;;;;;;;;;4986591;28;20049;-64
2023/02/19 07:42:37;;;;;;;3.28;0.90;;;;;;;;;;4989809;28;20085;-64
2023/02/19 07:45:04;;;;;;;2.95;1.05;;;;;;;;;;4990317;28;20076;-65
2023/02/19 07:47:31;;;;;;;5.18;1.05;;;;;;;;;;4992171;28;20503;-64
2023/02/19 07:49:57;;;;;;;4.13;1.00;;;;;;;;;;5014087;28;20037;-64
2023/02/19 07:52:24;;;;;;;4.50;1.20;;;;;;;;;;5006549;28;20042;-65
2023/02/19 07:54:51;;;;;;;5.65;1.20;;;;;;;;;;5003588;28;20553;-66
2023/02/19 07:57:17;;;;;;;5.53;1.40;;;;;;;;;;5006601;28;20451;-65
2023/02/19 07:59:44;;;;;;;5.32;1.15;;;;;;;;;;5004330;28;20076;-65
2023/02/19 08:05:06;;;;;;;5.35;1.30;;;;;;;;;;5003453;28;20105;-65
2023/02/19 08:07:33;;;;;;;4.28;1.00;;;;;;;;;;5004726;28;20051;-64
2023/02/19 08:15:32;;;;;;;5.68;1.30;;;;;;;;;;5004670;28;20136;-65
2023/02/19 08:17:59;;;;;;;4.50;1.17;;;;;;;;;;5006451;28;20120;-65
2023/02/19 08:20:25;;;;;;;3.00;1.13;;;;;;;;;;5006178;28;20042;-64
2023/02/19 08:22:52;;;;;;;5.60;1.20;;;;;;;;;;5005657;28;20064;-64
2023/02/19 08:25:38;;;;;;;5.68;1.60;;;;;;;;;;4965880;28;20061;-64
2023/02/19 08:28:05;;;;;;;5.85;1.17;;;;;;;;;;4964077;28;20042;-64
2023/02/19 08:30:33;;;;;;;5.68;1.33;;;;;;;;;;4964859;28;20079;-65
2023/02/19 08:33:00;;;;;;;5.68;1.50;;;;;;;;;;4961930;28;20039;-65
2023/02/19 08:35:27;;;;;;;4.65;1.48;;;;;;;;;;4962064;28;20089;-65
2023/02/19 08:37:57;;;;;;;3.33;1.10;;;;;;;;;;4976048;28;20116;-64
2023/02/19 08:40:27;;;;;;;4.05;1.20;;;;;;;;;;4980459;28;20475;-65
2023/02/19 08:42:53;;;;;;;5.13;1.35;;;;;;;;;;4980800;28;20528;-64
2023/02/19 08:45:21;;;;;;;4.68;1.42;;;;;;;;;;4980717;28;20463;-65
2023/02/19 08:47:48;;;;;;;4.05;1.25;;;;;;;;;;4981146;28;20041;-64
2023/02/19 08:50:15;;;;;;;5.38;1.75;;;;;;;;;;4974279;28;20030;-64
2023/02/19 08:52:41;;;;;;;5.68;1.42;;;;;;;;;;4960975;28;20562;-66
2023/02/19 08:55:08;;;;;;;3.28;1.20;;;;;;;;;;4959852;28;20050;-64
2023/02/19 08:57:39;;;;;;;3.88;1.35;;;;;;;;;;4999034;28;20152;-64
2023/02/19 09:00:06;;;;;;;4.10;1.15;;;;;;;;;;5005950;28;20529;-63
2023/02/19 09:02:33;;;;;;;3.65;1.10;;;;;;;;;;5005912;28;20129;-65
2023/02/19 09:05:03;;;;;;;5.13;1.33;;;;;;;;;;5011481;28;20030;-65
2023/02/19 09:07:30;;;;;;;2.78;1.05;;;;;;;;;;5014272;28;20044;-65
2023/02/19 09:09:57;;;;;;;6.88;1.30;;;;;;;;;;5013371;28;20038;-65
2023/02/19 09:12:25;;;;;;;4.07;1.10;;;;;;;;;;5007633;28;20045;-64
2023/02/19 09:14:52;;;;;;;4.05;1.30;;;;;;;;;;5002819;28;20090;-64
2023/02/19 09:17:18;;;;;;;3.50;1.20;;;;;;;;;;5006611;28;20038;-64
2023/02/19 09:19:45;;;;;;;3.92;1.00;;;;;;;;;;5016233;28;20415;-65
2023/02/19 09:22:12;;;;;;;3.40;1.20;;;;;;;;;;5012154;28;20222;-64
2023/02/19 09:24:38;;;;;;;3.30;1.00;;;;;;;;;;5004379;28;20501;-65
2023/02/19 09:27:05;;;;;;;5.82;1.25;;;;;;;;;;5006669;28;20049;-65
2023/02/19 09:29:33;;;;;;;3.95;1.30;;;;;;;;;;5004958;28;20046;-64
2023/02/19 09:32:00;;;;;;;3.92;1.17;;;;;;;;;;5006864;28;20034;-64
2023/02/19 09:34:27;;;;;;;2.45;1.02;;;;;;;;;;5003287;28;20046;-64
2023/02/19 09:36:55;;;;;;;7.38;1.50;;;;;;;;;;5006782;28;20702;-66
2023/02/19 09:39:21;;;;;;;6.97;1.60;;;;;;;;;;4988148;28;20065;-64
2023/02/19 09:42:31;;;;;;;6.45;1.38;;;;;;;;;;5001350;28;20235;-65
2023/02/19 09:44:58;;;;;;;4.13;1.10;;;;;;;;;;5000265;28;20065;-64
2023/02/19 09:47:26;;;;;;;3.92;1.33;;;;;;;;;;4991597;28;20046;-64
2023/02/19 09:49:57;;;;;;;3.25;1.20;;;;;;;;;;5000678;28;20081;-65
2023/02/19 09:52:36;;;;;;;6.93;1.67;;;;;;;;;;5004073;28;20045;-65
2023/02/19 09:55:04;;;;;;;9.18;1.60;;;;;;;;;;5003703;28;20046;-66
2023/02/19 09:57:33;;;;;;;3.72;1.40;;;;;;;;;;5002815;28;20047;-67
2023/02/19 10:00:03;;;;;;;4.22;1.42;;;;;;;;;;5002518;28;20104;-65
2023/02/19 10:02:30;;;;;;;2.92;1.02;;;;;;;;;;5003643;28;20072;-65
2023/02/19 10:04:57;;;;;;;5.60;1.52;;;;;;;;;;5008557;28;20117;-65
2023/02/19 10:07:24;;;;;;;4.38;1.33;;;;;;;;;;5010515;28;20458;-65
2023/02/19 10:09:53;;;;;;;4.97;1.38;;;;;;;;;;5014272;28;20050;-66
2023/02/19 10:12:24;;;;;;;3.88;1.20;;;;;;;;;;5014604;28;20029;-66
2023/02/19 10:14:52;;;;;;;4.05;1.23;;;;;;;;;;5013666;28;20141;-65
2023/02/19 10:17:22;;;;;;;7.40;1.60;;;;;;;;;;5011465;28;20053;-65
2023/02/19 10:19:49;;;;;;;4.75;1.52;;;;;;;;;;5030234;28;20500;-64
2023/02/19 10:22:17;;;;;;;3.15;1.33;;;;;;;;;;5029895;28;20068;-65
2023/02/19 10:24:44;;;;;;;4.78;1.70;;;;;;;;;;5028223;28;20111;-64
2023/02/19 10:27:14;;;;;;;5.53;1.50;;;;;;;;;;5028617;28;20037;-65
2023/02/19 10:29:45;;;;;;;4.18;1.35;;;;;;;;;;5026755;28;20124;-66
2023/02/19 10:32:13;;;;;;;3.50;1.27;;;;;;;;;;5030425;28;20034;-64
2023/02/19 10:34:39;;;;;;;5.55;1.58;;;;;;;;;;5037035;28;20394;-65
2023/02/19 10:37:10;;;;;;;3.72;1.60;;;;;;;;;;5038914;28;20045;-64
2023/02/19 10:39:41;;;;;;;5.30;1.20;;;;;;;;;;5035818;28;20069;-64
2023/02/19 10:42:14;;;;;;;5.68;1.73;;;;;;;;;;5034939;28;20044;-65
2023/02/19 10:44:45;;;;;;;7.43;1.50;;;;;;;;;;5028605;28;20049;-65
2023/02/19 10:47:20;;;;;;;6.18;1.50;;;;;;;;;;5029289;28;21656;-65
2023/02/19 10:49:47;;;;;;;3.70;1.30;;;;;;;;;;5027885;28;20037;-65
2023/02/19 10:52:20;;;;;;;5.50;1.30;;;;;;;;;;5031064;28;20028;-65
2023/02/19 10:54:49;;;;;;;5.70;1.20;;;;;;;;;;5026846;28;20110;-64
2023/02/19 10:57:16;;;;;;;7.75;1.30;;;;;;;;;;5030365;28;20633;-65
2023/02/19 10:59:49;;;;;;;4.70;1.55;;;;;;;;;;5030015;28;20039;-65
2023/02/19 11:02:16;;;;;;;;;;;;;;;;;;5029818;28;20057;-65
2023/02/19 11:04:55;;;;;;;8.52;1.30;;;;;;;;;;5027505;28;20305;-64
2023/02/19 11:07:21;;;;;;;4.32;1.40;;;;;;;;;;5027224;28;20041;-65
2023/02/19 11:09:52;;;;;;;9.20;1.63;;;;;;;;;;5027717;28;20033;-66
2023/02/19 11:12:37;;;;;;;5.10;1.40;;;;;;;;;;5027696;28;20118;-67
2023/02/19 11:15:20;;;;;;;4.80;1.40;;;;;;;;;;5010371;28;20045;-66
2023/02/19 11:17:53;;;;;;;5.00;1.23;;;;;;;;;;5025903;28;20038;-66
2023/02/19 11:20:21;;;;;;;4.88;1.30;;;;;;;;;;5028351;28;20659;-67
2023/02/19 11:22:48;;;;;;;3.65;1.15;;;;;;;;;;5025482;28;20045;-66
2023/02/19 11:25:15;;;;;;;4.38;1.50;;;;;;;;;;5026539;28;20057;-65
2023/02/19 11:27:56;;;;;;;3.55;1.40;;;;;;;;;;5028218;28;20979;-65
2023/02/19 11:30:58;;;;;;;6.93;1.60;;;;;;;;;;5025735;28;20052;-65
2023/02/19 11:33:28;;;;;;;4.60;1.40;;;;;;;;;;4957768;28;20042;-65
2023/02/19 11:36:00;;;;;;;3.78;1.20;;;;;;;;;;5013681;28;20148;-65
2023/02/19 11:38:27;;;;;;;4.45;1.35;;;;;;;;;;5025158;28;20102;-65
2023/02/19 11:41:08;;;;;;;2.97;1.00;;;;;;;;;;5026887;28;20036;-65
2023/02/19 11:43:40;;;;;;;3.10;1.00;;;;;;;;;;5006929;28;20073;-65
2023/02/19 11:46:08;;;;;;;6.27;0.90;;;;;;;;;;5025850;28;20120;-65
2023/02/19 11:48:57;;;;;;;4.45;1.15;;;;;;;;;;5024002;28;20041;-65
2023/02/19 11:51:32;;;;;;;5.18;1.15;;;;;;;;;;5024930;28;20044;-65
2023/02/19 11:54:10;;;;;;;5.20;1.05;;;;;;;;;;5024638;28;20084;-66
2023/02/19 11:56:39;;;;;;;3.20;1.00;;;;;;;;;;5024828;28;20049;-65
2023/02/19 11:59:05;;;;;;;3.33;1.08;;;;;;;;;;5024422;28;20037;-66
2023/02/19 12:01:35;;;;;;;3.42;1.15;;;;;;;;;;5024864;28;20037;-66
2023/02/19 12:04:01;;;;;;;2.80;0.80;;;;;;;;;;5024206;28;20514;-65
2023/02/19 12:06:40;;;;;;;2.97;0.93;;;;;;;;;;5024949;28;20076;-65
2023/02/19 12:09:13;;;;;;;6.35;1.23;;;;;;;;;;5024706;28;20064;-65
2023/02/19 12:11:39;;;;;;;3.15;0.68;;;;;;;;;;5023746;28;20045;-65
2023/02/19 12:14:17;;;;;;;3.50;1.08;;;;;;;;;;5010289;28;20441;-66
2023/02/19 12:16:44;;;;;;;3.92;1.10;;;;;;;;;;5025441;28;20391;-65
2023/02/19 12:19:16;;;;;;;3.15;0.90;;;;;;;;;;5028103;28;20033;-65
2023/02/19 12:21:55;;;;;;;2.63;0.80;;;;;;;;;;5025892;28;20041;-65
2023/02/19 12:24:28;;;;;;;7.50;1.00;;;;;;;;;;5025566;28;20485;-67
2023/02/19 12:26:54;;;;;;;2.90;0.90;;;;;;;;;;5028188;28;20463;-65
2023/02/19 12:29:48;;;;;;;5.97;1.27;;;;;;;;;;5029163;28;20041;-66
2023/02/19 12:32:21;;;;;;;2.60;0.90;;;;;;;;;;5027618;28;20084;-66
2023/02/19 12:35:09;;;;;;;4.45;0.80;;;;;;;;;;5013654;28;20124;-65
2023/02/19 12:37:54;;;;;;;3.97;1.08;;;;;;;;;;5030414;28;21494;-65
2023/02/19 12:40:40;;;;;;;2.70;0.90;;;;;;;;;;5038149;28;20548;-68
2023/02/19 12:43:09;;;;;;;3.40;1.00;;;;;;;;;;5035955;28;20083;-64
2023/02/19 12:45:39;;;;;;;2.85;1.10;;;;;;;;;;5023261;28;20159;-64
2023/02/19 12:48:24;;;;;;;7.43;1.05;;;;;;;;;;5023994;28;20107;-65
2023/02/19 12:50:55;;;;;;;5.50;0.90;;;;;;;;;;5023543;28;20048;-64
2023/02/19 12:53:21;;;;;;;3.42;0.80;;;;;;;;;;5026292;28;20041;-64
2023/02/19 12:55:48;;;;;;;4.65;1.17;;;;;;;;;;5027205;28;20053;-64
2023/02/19 12:58:35;;;;;;;3.05;1.00;;;;;;;;;;5030327;28;20043;-64
2023/02/19 13:01:02;;;;;;;4.20;1.00;;;;;;;;;;5029842;28;20041;-64
2023/02/19 13:03:32;;;;;;;3.67;1.00;;;;;;;;;;5017122;28;20040;-64
2023/02/19 13:06:07;;;;;;;2.85;1.10;;;;;;;;;;5039736;28;20037;-64
2023/02/19 13:08:45;;;;;;;3.15;1.10;;;;;;;;;;5025548;28;20037;-64
2023/02/19 13:11:20;;;;;;;5.75;1.05;;;;;;;;;;5024453;28;20493;-64
2023/02/19 13:13:54;;;;;;;4.20;1.10;;;;;;;;;;5023557;28;20045;-65
2023/02/19 13:16:22;;;;;;;3.38;0.90;;;;;;;;;;5025686;28;20060;-65
2023/02/19 13:18:56;;;;;;;3.15;1.10;;;;;;;;;;5024242;28;20119;-64
2023/02/19 13:24:30;;;;;;;3.17;1.02;;;;;;;;;;5026599;28;20139;-64
2023/02/19 13:27:09;;;;;;;5.57;1.33;;;;;;;;;;5026037;28;20050;-66
2023/02/19 13:29:42;;;;;;;5.43;1.48;;;;;;;;;;5023262;28;20758;-64
2023/02/19 13:32:11;;;;;;;5.30;1.38;;;;;;;;;;5009638;28;20092;-65
2023/02/19 13:34:38;;;;;;;6.35;1.10;;;;;;;;;;5013374;28;20053;-64
2023/02/19 13:37:05;;;;;;;6.45;1.33;;;;;;;;;;5024897;28;20060;-65
2023/02/19 13:39:32;;;;;;;3.75;1.10;;;;;;;;;;5027228;28;20369;-64
2023/02/19 13:41:59;;;;;;;6.70;1.10;;;;;;;;;;5026241;28;20552;-66
2023/02/19 13:44:28;;;;;;;3.72;0.65;;;;;;;;;;5026789;28;20128;-66
2023/02/19 13:46:54;;;;;;;8.38;1.38;;;;;;;;;;5029482;28;20494;-66
2023/02/19 13:49:24;;;;;;;2.17;0.70;;;;;;;;;;5028250;28;20045;-66
2023/02/19 13:52:00;;;;;;;6.28;0.75;;;;;;;;;;5030304;28;20090;-65
2023/02/19 13:54:38;;;;;;;1.20;0.50;;;;;;;;;;5029311;28;20075;-66
2023/02/19 13:57:21;;;;;;;5.53;0.80;;;;;;;;;;5028254;28;20049;-66
2023/02/19 13:59:48;;;;;;;6.32;0.90;;;;;;;;;;5007982;28;20634;-65
2023/02/19 14:02:16;;;;;;;10.90;1.15;;;;;;;;;;5026660;28;20180;-65
2023/02/19 14:04:52;;;;;;;4.85;0.90;;;;;;;;;;5027128;28;20564;-65
2023/02/19 14:07:53;;;;;;;2.63;0.73;;;;;;;;;;5006893;28;20371;-65
2023/02/19 14:10:38;;;;;;;8.40;1.08;;;;;;;;;;5005465;28;20056;-65
2023/02/19 14:13:07;;;;;;;3.75;0.75;;;;;;;;;;5006768;28;21327;-65
2023/02/19 14:15:39;;;;;;;3.70;0.82;;;;;;;;;;5007012;28;20132;-65
2023/02/19 14:18:28;;;;;;;2.25;0.70;;;;;;;;;;5007950;28;20438;-65
2023/02/19 14:21:06;;;;;;;3.65;0.93;;;;;;;;;;4985456;28;20069;-66
2023/02/19 14:23:56;;;;;;;5.07;1.00;;;;;;;;;;4970658;28;20041;-64
2023/02/19 14:26:24;;;;;;;4.75;0.98;;;;;;;;;;4971061;28;20043;-67
2023/02/19 14:28:52;;;;;;;6.25;0.90;;;;;;;;;;4973639;28;20541;-64
2023/02/19 14:31:27;;;;;;;4.55;1.00;;;;;;;;;;4969643;28;20134;-64
2023/02/19 14:34:02;;;;;;;7.88;1.23;;;;;;;;;;4950971;28;20616;-65
2023/02/19 14:36:47;;;;;;;3.95;1.00;;;;;;;;;;4950791;28;20043;-64
2023/02/19 14:39:16;;;;;;;1.95;0.68;;;;;;;;;;4957799;28;20043;-65
2023/02/19 14:41:45;;;;;;;3.63;0.55;;;;;;;;;;4951789;28;21175;-65
2023/02/19 14:44:17;;;;;;;4.90;0.77;;;;;;;;;;4954831;28;20035;-66
2023/02/19 14:46:53;;;;;;;2.22;0.55;;;;;;;;;;4942160;28;20046;-66
2023/02/19 14:49:20;;;;;;;2.53;0.45;;;;;;;;;;4962810;28;20144;-65
2023/02/19 14:51:50;;;;;;;1.58;0.50;;;;;;;;;;4962233;28;20039;-66
2023/02/19 14:54:17;;;;;;;1.55;0.35;;;;;;;;;;4959169;28;20053;-65
2023/02/19 14:56:45;;;;;;;1.23;0.40;;;;;;;;;;4937906;28;20039;-65
2023/02/19 14:59:25;;;;;;;3.22;0.45;;;;;;;;;;4953729;28;20499;-66
2023/02/19 15:02:24;;;;;;;1.83;0.45;;;;;;;;;;4978526;28;20041;-65
2023/02/19 15:04:52;;;;;;;4.38;0.70;;;;;;;;;;4994240;28;20037;-64
2023/02/19 15:07:24;;;;;;;1.88;0.50;;;;;;;;;;5012674;28;20033;-65
2023/02/19 15:09:53;;;;;;;5.60;0.75;;;;;;;;;;4997728;28;20038;-64
2023/02/19 15:12:24;;;;;;;1.30;0.50;;;;;;;;;;5006831;28;20038;-68
2023/02/19 15:14:51;;;;;;;2.25;0.50;;;;;;;;;;5024481;28;20505;-62
2023/02/19 15:17:29;;;;;;;1.92;0.50;;;;;;;;;;5007329;28;20064;-65
2023/02/19 15:19:57;;;;;;;2.63;0.60;;;;;;;;;;5002787;28;20180;-65
2023/02/19 15:22:27;;;;;;;1.30;0.40;;;;;;;;;;5016392;28;20033;-65
2023/02/19 15:24:55;;;;;;;1.73;0.50;;;;;;;;;;5009323;28;20418;-67
2023/02/19 15:27:42;;;;;;;2.10;0.47;;;;;;;;;;4977808;28;20054;-65
2023/02/19 15:30:19;;;;;;;5.40;0.52;;;;;;;;;;5001866;28;20046;-66